MDT,Max TemperatureF,Mean TemperatureF,Min TemperatureF,Max Dew PointF,MeanDew PointF,Min DewpointF,Max Humidity, Mean Humidity, Min Humidity, Max Sea Level PressureIn, Mean Sea Level PressureIn, Min Sea Level PressureIn, Max VisibilityMiles, Mean VisibilityMiles, Min VisibilityMiles, Max Wind SpeedMPH, Mean Wind SpeedMPH, Max Gust SpeedMPH,PrecipitationIn, CloudCover, Events, WindDirDegrees
2012-10-1,77,56,34,43,37,32,96,61,25,30.33,30.05,29.63,10,10,10,20,9,24,0.00,0,,180
2012-10-2,69,56,43,40,36,33,71,49,27,29.93,29.77,29.60,10,10,10,30,15,36,0.01,1,Rain,327
2012-10-3,44,42,40,38,37,35,92,81,70,30.51,30.26,29.93,10,9,5,18,13,25,0.19,8,Rain,359
2012-10-4,46,39,32,35,31,24,96,71,45,30.50,30.47,30.42,10,10,10,12,3,14,0.01,7,Rain,40
2012-10-5,46,36,25,31,25,20,89,64,39,30.52,30.46,30.37,10,8,0,15,7,61,0.02,5,Fog-Snow,52
2012-10-6,51,36,20,29,20,15,84,55,26,30.50,30.32,30.11,10,10,10,20,7,24,0.00,0,,202
2012-10-7,61,45,29,38,33,24,92,64,36,30.09,29.92,29.73,10,10,10,20,8,26,0.00,2,,280
2012-10-8,51,45,39,40,32,22,76,57,37,30.03,29.89,29.76,10,10,10,28,16,35,T,4,,308
2012-10-9,50,37,24,29,24,19,100,66,32,30.17,30.11,30.03,10,10,10,20,8,29,0.00,4,,311
2012-10-10,56,44,31,36,31,26,89,66,43,30.22,30.01,29.83,10,10,10,22,12,26,0.00,5,,12
2012-10-11,38,35,31,33,30,28,100,85,70,30.42,30.29,30.11,10,6,1,17,8,22,0.07,7,Snow,320
2012-10-12,63,46,29,40,35,28,96,68,39,30.08,29.79,29.64,10,10,7,13,8,16,0.00,0,,125
2012-10-13,64,51,37,38,37,35,92,64,36,29.94,29.84,29.68,10,10,4,9,5,12,0.00,4,,292
2012-10-14,70,56,41,40,38,36,79,56,32,30.03,29.92,29.73,10,10,6,20,8,23,0.00,2,,274
2012-10-15,71,58,45,41,39,35,76,54,31,29.72,29.67,29.63,10,10,10,21,8,25,0.00,2,,258
2012-10-16,59,50,41,51,42,36,89,71,53,29.65,29.40,29.26,10,9,3,41,16,54,0.28,4,Rain,223
2012-10-17,53,46,38,39,24,15,65,45,24,29.96,29.74,29.43,10,10,10,47,29,59,0.01,3,Rain,302
2012-10-18,52,42,31,29,25,19,85,57,28,30.17,30.11,29.98,10,10,10,31,15,39,0.00,2,,317
2012-10-19,62,46,30,38,32,26,92,64,36,30.03,29.73,29.54,10,10,10,21,10,24,0.00,0,,124
2012-10-20,67,52,36,39,32,17,76,51,25,29.79,29.56,29.47,10,10,10,23,10,29,0.00,2,,271
2012-10-21,51,38,25,31,26,21,92,63,33,30.06,29.97,29.81,10,10,10,14,4,16,0.00,0,,36
2012-10-22,43,40,36,37,35,27,92,78,64,30.02,29.87,29.67,10,8,4,25,17,32,0.34,8,Rain,100
2012-10-23,40,34,27,36,30,20,100,77,54,30.03,29.78,29.62,10,6,0,26,14,33,0.01,6,Fog,278
2012-10-24,37,31,25,22,20,18,75,66,56,30.16,30.10,30.03,10,10,10,23,15,29,0.00,7,,290
2012-10-25,32,29,26,21,18,15,69,61,53,30.49,30.41,30.36,10,10,9,24,15,29,T,8,Snow,306
2012-10-26,32,28,23,23,18,11,88,67,46,30.50,30.36,30.21,10,7,1,13,7,123,0.02,7,Snow,338
2012-10-27,31,28,24,23,21,20,88,79,69,30.31,30.24,30.12,10,10,7,21,12,24,T,7,Snow,107
2012-10-28,37,32,27,32,28,23,92,85,78,30.18,29.98,29.86,10,8,2,26,17,31,T,8,Rain-Snow,108
2012-10-29,40,34,27,38,34,25,100,93,85,30.01,29.96,29.87,9,5,2,18,9,21,0.02,5,Rain,107
2012-10-30,60,44,28,42,34,28,100,73,46,30.04,29.97,29.88,10,6,0,13,6,14,0.00,1,Fog,121
2012-10-31,42,37,31,38,31,27,92,81,70,30.22,30.11,29.93,10,10,10,24,11,29,0.00,7,,62